Time;durP1;ratioP1;P1;durP2;ratioP2;P2;SDS_P1;SDS_P2;PMS_P1;PMS_P2;Temp;Humidity;BMP_temperature;BMP_pressure;BME280_temperature;BME280_humidity;BME280_pressure;Samples;Min_cycle;Max_cycle;Signal;HPM_P1;HPM_P2
2022/06/01 00:02:11;;;;;;;49.10;36.55;;;;;;;8.73;100.00;101339.03;5054030;28;20500;-83
2022/06/01 00:04:39;;;;;;;48.53;36.63;;;;;;;8.91;100.00;101363.09;5054683;28;20037;-85
2022/06/01 00:07:04;;;;;;;48.70;36.05;;;;;;;8.96;100.00;101365.47;5054774;28;20480;-84
2022/06/01 00:09:30;;;;;;;47.00;37.10;;;;;;;8.96;100.00;101366.31;5054439;28;20037;-81
2022/06/01 00:11:55;;;;;;;48.33;36.55;;;;;;;8.99;99.77;101360.16;5054775;28;20117;-82
2022/06/01 00:14:20;;;;;;;47.80;37.45;;;;;;;9.00;99.56;101366.97;5054419;28;20507;-82
2022/06/01 00:16:46;;;;;;;51.47;38.80;;;;;;;8.70;99.92;101316.03;5054650;28;20026;-83
2022/06/01 00:19:12;;;;;;;49.65;38.60;;;;;;;8.79;99.81;101348.22;5054478;28;20380;-84
2022/06/01 00:22:11;;;;;;;53.63;39.42;;;;;;;8.32;100.00;101269.72;5054478;28;20021;-81
2022/06/01 00:24:23;;;;;;;56.28;41.53;;;;;;;8.99;100.00;101365.31;5054217;28;20068;-84
2022/06/01 00:26:50;;;;;;;59.13;41.70;;;;;;;8.96;100.00;101352.59;5054301;28;20029;-85
2022/06/01 00:29:16;;;;;;;55.25;40.38;;;;;;;8.93;100.00;101350.97;5054272;28;20465;-83
2022/06/01 00:31:43;;;;;;;57.70;42.72;;;;;;;9.10;100.00;101366.47;5054330;28;20035;-79
2022/06/01 00:34:09;;;;;;;59.58;42.40;;;;;;;8.94;100.00;101341.50;5054146;28;20029;-80
2022/06/01 00:36:34;;;;;;;56.45;40.92;;;;;;;9.12;100.00;101368.97;5054428;28;20124;-82
2022/06/01 00:38:59;;;;;;;57.63;40.45;;;;;;;9.15;100.00;101363.69;5053913;28;20530;-85
2022/06/01 00:41:25;;;;;;;59.55;42.80;;;;;;;9.00;100.00;101336.91;5054173;28;20025;-82
2022/06/01 00:43:50;;;;;;;60.83;43.90;;;;;;;9.20;100.00;101361.69;5054084;28;20025;-83
2022/06/01 00:46:16;;;;;;;58.08;43.15;;;;;;;9.15;100.00;101369.66;5054050;28;20108;-81
2022/06/01 00:48:45;;;;;;;55.92;40.83;;;;;;;8.97;100.00;101341.38;5053747;28;20480;-84
2022/06/01 00:51:14;;;;;;;58.83;42.75;;;;;;;9.11;100.00;101364.72;5053642;28;20029;-84
2022/06/01 00:53:41;;;;;;;56.75;41.08;;;;;;;9.06;100.00;101361.53;5053985;28;20032;-85
2022/06/01 00:56:12;;;;;;;55.45;41.45;;;;;;;9.02;100.00;101362.59;5054019;28;20442;-82
2022/06/01 00:58:40;;;;;;;55.97;42.72;;;;;;;9.02;100.00;101368.56;5053981;28;20029;-81
2022/06/01 01:01:11;;;;;;;58.03;43.65;;;;;;;8.77;100.00;101321.72;5053769;28;20029;-85
2022/06/01 01:03:39;;;;;;;61.25;43.33;;;;;;;9.03;100.00;101370.22;5036269;28;20017;-85
2022/06/01 01:06:21;;;;;;;56.42;41.97;;;;;;;8.94;100.00;101341.50;5053562;28;20032;-81
2022/06/01 01:08:47;;;;;;;;;;;;;;;9.10;100.00;101357.91;5053851;28;20051;-84
2022/06/01 01:11:13;;;;;;;54.00;40.83;;;;;;;9.04;100.00;101363.34;5053632;28;19912;-85
2022/06/01 01:13:44;;;;;;;53.63;40.65;;;;;;;8.77;100.00;101343.16;5053095;28;20400;-83
2022/06/01 01:16:14;;;;;;;54.80;41.08;;;;;;;8.88;100.00;101361.50;5053327;28;20489;-80
2022/06/01 01:18:43;;;;;;;55.92;40.47;;;;;;;8.84;100.00;101352.25;5053478;28;20421;-83
2022/06/01 01:21:26;;;;;;;57.63;41.50;;;;;;;8.86;100.00;101350.44;5053168;28;20029;-80
2022/06/01 01:24:27;;;;;;;57.22;40.75;;;;;;;8.83;100.00;101360.88;5053319;28;20028;-84
2022/06/01 01:26:53;;;;;;;51.95;38.97;;;;;;;8.66;100.00;101336.84;5011325;28;20052;-84
2022/06/01 01:29:40;;;;;;;56.40;40.67;;;;;;;8.79;100.00;101361.94;5011383;28;20049;-83
2022/06/01 01:32:08;;;;;;;55.53;41.78;;;;;;;8.84;100.00;101365.13;5011510;28;20068;-85
2022/06/01 01:34:36;;;;;;;61.17;42.10;;;;;;;8.89;100.00;101352.88;5011042;28;20026;-81
2022/06/01 01:37:05;;;;;;;56.25;42.08;;;;;;;8.88;100.00;101340.06;5011129;28;20422;-85
2022/06/01 01:39:34;;;;;;;54.67;41.38;;;;;;;8.95;100.00;101344.03;5011298;28;20529;-85
2022/06/01 01:42:00;;;;;;;54.33;39.65;;;;;;;9.11;100.00;101351.84;5011082;28;20458;-84
2022/06/01 01:44:30;;;;;;;55.95;41.58;;;;;;;9.18;100.00;101354.06;5011165;28;20026;-82
2022/06/01 01:46:56;;;;;;;54.38;40.80;;;;;;;9.26;100.00;101360.59;5011079;28;20060;-84
2022/06/01 01:49:30;;;;;;;54.35;40.83;;;;;;;9.32;100.00;101355.09;5010623;28;20121;-85
2022/06/01 01:51:58;;;;;;;53.67;40.30;;;;;;;9.31;100.00;101353.44;5010942;28;20489;-84
2022/06/01 01:54:48;;;;;;;53.78;41.50;;;;;;;9.38;100.00;101355.66;5011315;28;20594;-84
2022/06/01 01:57:22;;;;;;;53.78;39.13;;;;;;;9.39;100.00;101352.16;5011077;28;20062;-82
2022/06/01 02:00:24;;;;;;;50.20;37.03;;;;;;;9.45;99.97;101353.59;5011065;28;20112;-84
2022/06/01 02:03:07;;;;;;;51.20;38.15;;;;;;;9.38;99.51;101345.34;5022006;28;20041;-83
2022/06/01 02:06:04;;;;;;;51.20;38.50;;;;;;;9.40;99.56;101355.56;5052397;28;20457;-81
2022/06/01 02:08:38;;;;;;;54.72;39.17;;;;;;;9.40;99.41;101361.56;5052479;28;20025;-82
2022/06/01 02:14:25;;;;;;;54.47;40.53;;;;;;;9.44;99.53;101357.94;5052565;28;20520;-83
2022/06/01 02:16:59;;;;;;;54.40;40.72;;;;;;;9.44;99.65;101351.94;5052444;28;20041;-83
2022/06/01 02:19:31;;;;;;;52.53;39.42;;;;;;;9.44;99.18;101355.34;5052795;28;20079;-83
2022/06/01 02:21:59;;;;;;;54.42;39.78;;;;;;;9.45;99.36;101359.59;5034104;28;20440;-83
2022/06/01 02:24:25;;;;;;;54.33;40.45;;;;;;;9.47;99.50;101362.09;5053445;28;20025;-81
2022/06/01 02:26:52;;;;;;;56.58;39.92;;;;;;;9.51;99.37;101365.34;5038605;28;20041;-81
2022/06/01 02:29:22;;;;;;;54.03;40.55;;;;;;;9.51;99.40;101361.03;5056400;28;20047;-84
2022/06/01 02:31:50;;;;;;;55.83;42.33;;;;;;;9.53;99.05;101360.94;5056353;28;20029;-81
2022/06/01 02:34:16;;;;;;;56.50;39.38;;;;;;;9.51;98.66;101362.75;5056624;28;20472;-85
2022/06/01 02:36:43;;;;;;;55.42;40.65;;;;;;;9.51;98.69;101358.44;5056569;28;20044;-85
2022/06/01 02:39:12;;;;;;;55.22;41.25;;;;;;;9.48;98.88;101366.34;5056684;28;20040;-86
2022/06/01 02:44:21;;;;;;;54.15;41.55;;;;;;;9.29;98.38;101343.22;5056335;28;20048;-83
2022/06/01 02:46:47;;;;;;;58.05;42.30;;;;;;;9.15;98.11;101333.59;5056267;28;20384;-81
2022/06/01 02:49:12;;;;;;;56.22;40.28;;;;;;;9.13;98.22;101352.59;5056339;28;20025;-82
2022/06/01 02:51:39;;;;;;;55.92;40.50;;;;;;;8.83;98.56;101326.56;5038271;28;20357;-83
2022/06/01 02:54:04;;;;;;;57.40;39.83;;;;;;;8.91;98.89;101350.22;5055984;28;20032;-86
2022/06/01 02:56:30;;;;;;;55.13;40.38;;;;;;;8.83;99.33;101350.56;5055997;28;20055;-85
2022/06/01 02:58:56;;;;;;;53.78;38.10;;;;;;;8.71;99.37;101334.88;5055879;28;20021;-81
2022/06/01 03:01:22;;;;;;;57.30;39.10;;;;;;;8.49;99.49;101317.03;5055839;28;20028;-83
2022/06/01 03:03:47;;;;;;;55.60;38.47;;;;;;;8.61;99.81;101345.59;5056106;28;20217;-83
2022/06/01 03:06:13;;;;;;;54.08;38.03;;;;;;;8.25;99.77;101299.19;5055867;28;20067;-84
2022/06/01 03:08:39;;;;;;;57.08;38.90;;;;;;;8.52;100.00;101342.63;5055728;28;20032;-81
2022/06/01 03:11:04;;;;;;;58.03;39.33;;;;;;;8.47;100.00;101350.56;5055743;28;20021;-85
2022/06/01 03:13:30;;;;;;;56.33;39.45;;;;;;;8.42;100.00;101344.78;5055519;28;20083;-84
2022/06/01 03:15:55;;;;;;;58.55;40.67;;;;;;;8.29;100.00;101334.19;5055758;28;20450;-84
2022/06/01 03:18:21;;;;;;;60.20;40.67;;;;;;;8.34;100.00;101351.97;5055943;28;20016;-86
2022/06/01 03:20:46;;;;;;;60.53;40.58;;;;;;;7.95;100.00;101295.44;5054039;28;20392;-85
2022/06/01 03:23:12;;;;;;;59.08;41.60;;;;;;;7.85;100.00;101301.88;5055743;28;20530;-86
2022/06/01 03:25:38;;;;;;;62.53;40.28;;;;;;;7.87;100.00;101311.22;5037244;28;20037;-84
2022/06/01 03:28:05;;;;;;;61.63;42.13;;;;;;;7.78;100.00;101295.38;5055335;28;20029;-84
2022/06/01 03:30:32;;;;;;;67.50;44.67;;;;;;;8.02;100.00;101331.09;5055215;28;20036;-85
2022/06/01 03:32:57;;;;;;;62.25;43.50;;;;;;;8.10;100.00;101348.78;5055411;28;20020;-85
2022/06/01 03:35:29;;;;;;;61.80;43.25;;;;;;;7.89;100.00;101335.13;5055029;28;20519;-85
2022/06/01 03:37:57;;;;;;;;;;;;;;;8.04;100.00;101354.19;5055304;28;20025;-85
2022/06/01 03:40:22;;;;;;;67.22;43.45;;;;;;;7.95;100.00;101344.28;5055066;28;20345;-86
2022/06/01 03:42:48;;;;;;;62.15;43.05;;;;;;;7.99;100.00;101358.72;5055196;28;20025;-83
2022/06/01 03:47:57;;;;;;;61.65;42.83;;;;;;;7.98;100.00;101354.47;5055000;28;20504;-86
2022/06/01 03:50:25;;;;;;;64.78;43.28;;;;;;;8.04;100.00;101362.72;5055062;28;20021;-81
2022/06/01 03:52:51;;;;;;;63.83;43.25;;;;;;;8.09;100.00;101364.28;5054880;28;20025;-81
2022/06/01 03:55:17;;;;;;;61.58;41.58;;;;;;;8.16;100.00;101366.53;5054780;28;20119;-84
2022/06/01 03:57:43;;;;;;;65.13;42.72;;;;;;;8.20;100.00;101355.19;5054995;28;20118;-84
2022/06/01 04:00:12;;;;;;;63.90;42.20;;;;;;;8.21;100.00;101350.88;5054897;28;20037;-85
2022/06/01 04:02:39;;;;;;;60.92;43.05;;;;;;;8.28;100.00;101340.25;5054834;28;20057;-82
2022/06/01 04:05:05;;;;;;;60.10;40.38;;;;;;;8.52;100.00;101366.63;5054832;28;20035;-81
2022/06/01 04:07:30;;;;;;;56.70;38.35;;;;;;;8.59;100.00;101368.00;5054403;28;20021;-79
2022/06/01 04:09:56;;;;;;;57.47;37.70;;;;;;;8.65;100.00;101373.78;5054619;28;20037;-84
2022/06/01 04:12:22;;;;;;;49.15;35.78;;;;;;;8.66;99.82;101371.16;5054747;28;20100;-79
2022/06/01 04:14:48;;;;;;;48.67;34.78;;;;;;;8.62;99.27;101373.00;5054282;28;20053;-86
2022/06/01 04:17:13;;;;;;;49.15;35.67;;;;;;;8.46;99.55;101348.06;5053331;28;20071;-80
2022/06/01 04:19:39;;;;;;;50.85;34.53;;;;;;;8.58;99.75;101360.38;5054772;28;20507;-82
2022/06/01 04:22:04;;;;;;;50.40;35.10;;;;;;;8.69;99.40;101365.03;5054225;28;20491;-81
2022/06/01 04:24:34;;;;;;;47.30;34.67;;;;;;;8.59;99.25;101347.41;5054388;28;20051;-81
2022/06/01 04:26:59;;;;;;;45.78;32.90;;;;;;;8.74;98.85;101363.03;5054302;28;20025;-79
2022/06/01 04:29:24;;;;;;;49.28;33.63;;;;;;;8.72;99.26;101328.81;5054148;28;20051;-83
2022/06/01 04:31:59;;;;;;;43.78;31.25;;;;;;;9.65;96.24;101375.81;5054454;28;20052;-84
2022/06/01 04:34:25;;;;;;;42.03;30.15;;;;;;;9.63;92.40;101290.78;5054309;28;20032;-85
2022/06/01 04:36:52;;;;;;;40.67;27.83;;;;;;;10.03;90.90;101348.91;5053978;28;20035;-81
2022/06/01 04:39:18;;;;;;;40.83;27.88;;;;;;;9.99;91.17;101369.75;5054162;28;20052;-84
2022/06/01 04:41:43;;;;;;;36.85;27.63;;;;;;;9.84;91.37;101368.81;5054204;28;20471;-84
2022/06/01 04:44:09;;;;;;;38.88;28.60;;;;;;;9.75;92.01;101374.44;5054054;28;20086;-84
2022/06/01 04:46:36;;;;;;;38.60;27.58;;;;;;;9.64;91.99;101369.81;5054079;28;20025;-83
2022/06/01 04:49:02;;;;;;;39.25;28.20;;;;;;;9.62;92.73;101374.19;5034627;28;20044;-85
2022/06/01 04:51:27;;;;;;;38.53;28.95;;;;;;;9.69;92.87;101375.56;5053945;28;20082;-84
2022/06/01 04:53:52;;;;;;;49.15;27.63;;;;;;;9.74;92.85;101376.19;5053484;28;20102;-85
2022/06/01 04:56:23;;;;;;;39.88;28.13;;;;;;;9.75;92.92;101372.69;5053361;28;20033;-85
2022/06/01 04:58:49;;;;;;;37.85;28.23;;;;;;;9.78;92.67;101369.94;5053457;28;20029;-84
2022/06/01 05:01:14;;;;;;;38.00;28.50;;;;;;;10.09;91.94;101332.25;5052719;28;20124;-82
2022/06/01 05:03:39;;;;;;;40.83;28.30;;;;;;;11.89;85.90;101366.03;5053762;28;20025;-83
2022/06/01 05:06:05;;;;;;;35.08;24.25;;;;;;;13.49;78.79;101373.25;5053897;28;20029;-87
2022/06/01 05:08:30;;;;;;;31.00;22.48;;;;;;;14.55;72.62;101333.88;5053711;28;20116;-85
2022/06/01 05:10:55;;;;;;;28.42;20.98;;;;;;;15.66;67.87;101368.25;5053449;28;20484;-89
2022/06/01 05:13:21;;;;;;;26.98;19.88;;;;;;;16.39;64.94;101361.72;5053114;28;20079;-82
2022/06/01 05:15:58;;;;;;;24.55;19.75;;;;;;;17.14;61.45;101374.81;5035093;28;20185;-84
2022/06/01 05:18:25;;;;;;;23.45;18.63;;;;;;;17.58;58.98;101336.31;5053350;28;20060;-87
2022/06/01 05:20:51;;;;;;;29.00;18.55;;;;;;;18.22;56.77;101372.69;5053139;28;20047;-86
2022/06/01 05:23:17;;;;;;;26.08;18.52;;;;;;;17.75;56.69;101370.56;5053139;28;20103;-86
2022/06/01 05:25:47;;;;;;;26.67;19.05;;;;;;;16.89;58.55;101329.00;5053185;28;20029;-85
2022/06/01 05:28:16;;;;;;;22.92;17.73;;;;;;;17.57;57.94;101345.94;5052877;28;20036;-86
2022/06/01 05:30:44;;;;;;;25.05;18.20;;;;;;;18.28;56.19;101314.59;5053437;28;20112;-85
2022/06/01 05:33:09;;;;;;;22.10;16.85;;;;;;;19.22;53.11;101360.28;5052986;28;20128;-83
2022/06/01 05:35:35;;;;;;;24.08;17.73;;;;;;;19.91;52.20;101341.66;5053182;28;20084;-87
2022/06/01 05:38:01;;;;;;;23.88;17.00;;;;;;;20.28;50.35;101353.88;5052930;28;20025;-84
2022/06/01 05:40:30;;;;;;;24.05;17.05;;;;;;;20.42;48.96;101342.06;5052346;28;20467;-84
2022/06/01 05:42:58;;;;;;;25.60;16.80;;;;;;;20.46;48.87;101356.59;5052717;28;20072;-85
2022/06/01 05:45:24;;;;;;;22.95;16.63;;;;;;;20.66;49.42;101371.22;5052798;28;20409;-84
2022/06/01 05:48:22;;;;;;;20.27;15.25;;;;;;;21.35;50.73;101354.75;5052281;28;20102;-86
2022/06/01 05:50:48;;;;;;;23.13;15.30;;;;;;;21.56;46.39;101371.97;4971674;28;20049;-82
2022/06/01 05:53:14;;;;;;;22.13;15.88;;;;;;;21.85;45.81;101384.78;4971529;28;20018;-85
2022/06/01 05:55:42;;;;;;;21.17;15.30;;;;;;;21.78;45.60;101345.16;4971905;28;20151;-84
2022/06/01 05:58:12;;;;;;;23.27;14.80;;;;;;;22.10;46.12;101365.53;4971884;28;20038;-86
2022/06/01 06:00:40;;;;;;;20.95;14.73;;;;;;;22.55;44.50;101385.41;4971710;28;20517;-86
2022/06/01 06:03:06;;;;;;;20.38;14.70;;;;;;;22.55;43.85;101383.59;4972028;28;20035;-87
2022/06/01 06:08:15;;;;;;;20.70;13.82;;;;;;;22.82;43.43;101386.97;4971562;28;20101;-83
2022/06/01 06:10:42;;;;;;;18.67;13.75;;;;;;;23.31;43.01;101371.19;4971978;28;20078;-86
2022/06/01 06:13:07;;;;;;;18.55;13.80;;;;;;;23.64;41.51;101390.44;4955745;28;20070;-87
2022/06/01 06:15:33;;;;;;;16.42;13.45;;;;;;;23.82;42.17;101383.13;4971563;28;20043;-86
2022/06/01 06:18:01;;;;;;;17.35;12.70;;;;;;;23.88;41.14;101389.53;4955731;28;20035;-85
2022/06/01 06:20:26;;;;;;;19.50;12.27;;;;;;;23.59;41.42;101383.00;4971829;28;20041;-87
2022/06/01 06:22:51;;;;;;;17.52;12.32;;;;;;;23.62;41.53;101366.06;4971379;28;20390;-82
2022/06/01 06:25:17;;;;;;;20.13;13.50;;;;;;;23.59;41.86;101398.00;4971524;28;20031;-82
2022/06/01 06:27:42;;;;;;;18.75;12.50;;;;;;;23.38;41.71;101380.06;5031730;28;20086;-88
2022/06/01 06:30:08;;;;;;;16.83;11.32;;;;;;;23.23;41.76;101358.00;5052240;28;20041;-85
2022/06/01 06:32:34;;;;;;;15.77;11.50;;;;;;;23.75;42.16;101388.25;5052184;28;20021;-82
2022/06/01 06:34:59;;;;;;;17.92;11.90;;;;;;;24.33;41.14;101383.63;5052219;28;20431;-85
2022/06/01 06:37:24;;;;;;;18.50;12.35;;;;;;;24.27;39.80;101368.41;5052259;28;20021;-84
2022/06/01 06:39:53;;;;;;;15.88;11.30;;;;;;;24.65;39.74;101406.34;5052120;28;20124;-86
2022/06/01 06:42:18;;;;;;;17.27;11.68;;;;;;;24.80;39.96;101394.06;5052014;28;20029;-86
2022/06/01 06:44:43;;;;;;;16.88;10.68;;;;;;;24.70;38.72;101369.69;5018112;28;20036;-88
2022/06/01 06:47:09;;;;;;;18.15;10.73;;;;;;;24.92;38.69;101383.06;5052472;28;20051;-81
2022/06/01 06:49:34;;;;;;;14.90;10.43;;;;;;;25.07;38.33;101398.03;5052238;28;20074;-85
2022/06/01 06:51:59;;;;;;;15.55;10.05;;;;;;;24.97;38.70;101405.31;5052364;28;20112;-87
2022/06/01 06:54:27;;;;;;;13.52;10.55;;;;;;;25.12;39.31;101424.72;5052641;28;20033;-86
2022/06/01 06:56:52;;;;;;;14.73;9.60;;;;;;;25.40;37.71;101424.16;5033554;28;20029;-87
2022/06/01 06:59:17;;;;;;;15.05;9.70;;;;;;;25.26;37.70;101409.91;5052371;28;20083;-89
2022/06/01 07:01:43;;;;;;;13.98;9.00;;;;;;;25.46;38.13;101421.59;5052204;28;20032;-89
2022/06/01 07:04:08;;;;;;;14.15;9.60;;;;;;;25.44;37.56;101407.75;5052302;28;20032;-82
2022/06/01 07:06:34;;;;;;;14.25;8.85;;;;;;;25.77;37.61;101427.81;5051798;28;20037;-84
2022/06/01 07:09:00;;;;;;;13.52;9.10;;;;;;;25.82;36.97;101430.72;5051878;28;20025;-84
2022/06/01 07:11:29;;;;;;;10.85;7.75;;;;;;;25.33;37.12;101376.47;5035135;28;20416;-84
2022/06/01 07:13:55;;;;;;;14.73;8.75;;;;;;;25.81;36.73;101392.84;5037513;28;20041;-84
2022/06/01 07:16:27;;;;;;;12.98;8.38;;;;;;;25.86;36.21;101406.38;5055559;28;20094;-84
2022/06/01 07:18:54;;;;;;;14.38;9.07;;;;;;;25.85;36.89;101399.41;5055636;28;20033;-84
2022/06/01 07:21:21;;;;;;;14.38;8.40;;;;;;;26.07;37.13;101426.00;5055659;28;20025;-85
2022/06/01 07:23:47;;;;;;;12.70;8.57;;;;;;;25.94;36.12;101397.50;5055231;28;20036;-81
2022/06/01 07:26:16;;;;;;;12.32;8.63;;;;;;;26.16;36.13;101430.19;5055360;28;20021;-85
2022/06/01 07:28:41;;;;;;;11.45;8.05;;;;;;;26.02;36.41;101405.34;5055488;28;20021;-83
2022/06/01 07:31:08;;;;;;;14.40;7.93;;;;;;;26.22;35.91;101432.91;5055368;28;20701;-85
2022/06/01 07:33:35;;;;;;;13.93;7.28;;;;;;;25.86;35.96;101432.84;5055415;28;20388;-83
2022/06/01 07:36:03;;;;;;;10.73;7.63;;;;;;;24.65;39.37;101430.13;5055313;28;20025;-84
2022/06/01 07:44:06;;;;;;;;;;;;;;;20.92;47.18;101440.38;5055967;28;20094;-82
2022/06/01 07:46:37;;;;;;;13.15;8.35;;;;;;;19.70;50.52;101441.44;5055160;28;19912;-84
2022/06/01 07:49:03;;;;;;;14.93;8.95;;;;;;;18.90;53.75;101387.56;5037100;28;20134;-84
2022/06/01 07:51:29;;;;;;;13.43;8.93;;;;;;;18.69;54.59;101439.19;5054982;28;20438;-84
2022/06/01 07:53:55;;;;;;;13.70;8.68;;;;;;;18.52;54.56;101448.47;5054971;28;20103;-83
2022/06/01 07:56:20;;;;;;;13.63;8.98;;;;;;;18.32;54.37;101390.03;5054728;28;20028;-83
2022/06/01 07:58:45;;;;;;;12.50;8.57;;;;;;;18.39;55.34;101418.28;5055049;28;20043;-82
2022/06/01 08:01:12;;;;;;;14.18;9.65;;;;;;;17.77;56.53;101401.75;5054771;28;20082;-80
2022/06/01 08:03:38;;;;;;;15.05;10.27;;;;;;;18.04;58.91;101443.88;5054645;28;20032;-81
2022/06/01 08:06:04;;;;;;;14.60;10.35;;;;;;;17.59;57.41;101395.44;5054703;28;20427;-84
2022/06/01 08:08:30;;;;;;;15.38;10.55;;;;;;;17.77;58.44;101440.94;5054918;28;20024;-81
2022/06/01 08:10:59;;;;;;;16.45;10.32;;;;;;;17.52;58.58;101439.53;5054592;28;20087;-83
2022/06/01 08:13:25;;;;;;;15.45;10.60;;;;;;;17.53;59.32;101445.59;5054724;28;20479;-84
2022/06/01 08:15:51;;;;;;;17.52;10.73;;;;;;;17.29;59.13;101404.84;5054401;28;20048;-85
2022/06/01 08:18:22;;;;;;;14.65;9.68;;;;;;;17.22;58.49;101440.25;5054680;28;20028;-83
2022/06/01 08:20:48;;;;;;;13.32;9.80;;;;;;;17.36;58.49;101439.94;5054254;28;20020;-81
2022/06/01 08:23:14;;;;;;;15.63;10.30;;;;;;;17.52;58.34;101438.69;5054407;28;20040;-84
2022/06/01 08:25:41;;;;;;;14.07;11.00;;;;;;;17.42;59.40;101400.28;5054213;28;20029;-84
2022/06/01 08:28:07;;;;;;;15.43;11.80;;;;;;;17.78;57.45;101432.16;5054354;28;20027;-82
2022/06/01 08:30:34;;;;;;;15.77;11.10;;;;;;;17.67;58.17;101429.59;5054403;28;20025;-84
2022/06/01 08:33:00;;;;;;;13.15;10.63;;;;;;;17.37;58.96;101378.94;5054210;28;20017;-84
2022/06/01 08:35:29;;;;;;;13.77;11.07;;;;;;;17.64;58.35;101443.72;5054380;28;20469;-84
2022/06/01 08:37:55;;;;;;;14.05;10.50;;;;;;;17.78;57.42;101442.59;5054257;28;20063;-84
2022/06/01 08:40:25;;;;;;;15.85;11.50;;;;;;;17.85;57.58;101448.16;5110991;23;20117;-84
2022/06/01 08:43:03;;;;;;;16.10;11.50;;;;;;;17.52;55.89;101438.69;5056465;28;20036;-83
2022/06/01 08:45:29;;;;;;;18.40;11.07;;;;;;;17.25;56.55;101434.78;5074047;28;20032;-84
2022/06/01 08:47:56;;;;;;;16.02;10.98;;;;;;;17.04;58.02;101437.34;5073761;28;20100;-85
2022/06/01 08:50:25;;;;;;;16.33;10.90;;;;;;;16.96;57.63;101436.31;5073798;28;20028;-85
2022/06/01 08:52:52;;;;;;;14.73;11.05;;;;;;;16.77;58.04;101384.78;5073934;28;20020;-85
2022/06/01 08:55:17;;;;;;;16.15;10.30;;;;;;;17.17;58.18;101432.78;5073894;28;20031;-84
2022/06/01 08:57:57;;;;;;;14.65;8.85;;;;;;;17.62;56.20;101442.22;5073910;28;20028;-82
2022/06/01 09:00:26;;;;;;;11.88;8.70;;;;;;;17.74;56.07;101387.19;5073468;28;20020;-85
2022/06/01 09:03:02;;;;;;;11.48;8.65;;;;;;;18.11;53.73;101445.97;5073458;28;20078;-84
2022/06/01 09:05:43;;;;;;;12.32;9.55;;;;;;;17.84;54.61;101449.13;5073708;28;20103;-82
2022/06/01 09:08:42;;;;;;;12.18;9.48;;;;;;;17.31;55.00;101444.72;5073492;28;20460;-83
2022/06/01 09:11:11;;;;;;;12.15;10.05;;;;;;;16.56;56.81;101436.81;5073528;28;20468;-82
2022/06/01 09:14:05;;;;;;;14.48;10.80;;;;;;;16.34;57.59;101454.16;5073706;28;20380;-84
2022/06/01 09:16:35;;;;;;;15.43;11.85;;;;;;;15.97;60.08;101450.09;5031203;28;20100;-79
2022/06/01 09:19:01;;;;;;;16.50;12.50;;;;;;;15.59;62.23;101435.53;5031457;28;20041;-84
2022/06/01 09:24:21;;;;;;;15.13;11.65;;;;;;;15.15;67.45;101477.81;5031764;28;20044;-84
2022/06/01 09:26:54;;;;;;;14.85;11.95;;;;;;;14.88;70.12;101486.63;5031174;28;20029;-80
2022/06/01 09:29:23;;;;;;;11.75;9.15;;;;;;;14.51;70.17;101503.97;5031110;28;20037;-81
2022/06/01 09:31:54;;;;;;;10.07;6.88;;;;;;;13.84;69.70;101498.06;5014301;28;20120;-81
2022/06/01 09:34:35;;;;;;;8.40;5.43;;;;;;;13.61;69.98;101491.78;5014056;28;20030;-83
2022/06/01 09:37:17;;;;;;;8.02;5.35;;;;;;;13.39;72.74;101476.78;5031082;28;20034;-83
2022/06/01 09:40:38;;;;;;;7.78;5.25;;;;;;;13.55;72.91;101483.56;5030968;28;20404;-85
2022/06/01 09:43:04;;;;;;;8.43;4.13;;;;;;;13.59;75.54;101457.34;5009817;28;20049;-86
2022/06/01 09:45:42;;;;;;;7.60;4.43;;;;;;;13.92;75.42;101446.47;5011277;28;20046;-86
2022/06/01 09:48:28;;;;;;;5.82;3.50;;;;;;;14.68;73.29;101468.19;5012489;28;20038;-89
2022/06/01 09:51:08;;;;;;;4.40;3.38;;;;;;;15.40;70.73;101490.69;5011492;28;20128;-88
2022/06/01 09:53:45;;;;;;;4.68;3.25;;;;;;;15.74;68.84;101481.28;5022122;28;20073;-80
2022/06/01 09:56:10;;;;;;;5.45;3.28;;;;;;;16.18;67.76;101484.09;5030661;28;20029;-84
2022/06/01 10:07:04;;;;;;;6.30;3.10;;;;;;;15.89;66.06;101487.13;5030562;28;20139;-80
2022/06/01 10:09:31;;;;;;;5.07;3.28;;;;;;;15.55;67.94;101493.16;5030457;28;20037;-85
2022/06/01 10:11:57;;;;;;;9.15;3.75;;;;;;;15.35;67.71;101515.41;5030268;28;20421;-84
2022/06/01 10:14:32;;;;;;;12.15;3.80;;;;;;;15.03;69.12;101504.69;5030412;28;20017;-85
2022/06/01 10:17:13;;;;;;;6.50;3.03;;;;;;;14.76;69.13;101520.47;5030471;28;20021;-84
2022/06/01 10:19:55;;;;;;;6.60;3.20;;;;;;;14.58;71.41;101532.97;5056261;28;20200;-85
2022/06/01 10:22:30;;;;;;;7.32;3.42;;;;;;;14.35;72.49;101514.56;5072395;28;20384;-84
2022/06/01 10:25:12;;;;;;;8.55;4.55;;;;;;;14.61;71.72;101533.56;5072810;28;20426;-85
2022/06/01 10:27:53;;;;;;;8.95;4.93;;;;;;;14.68;71.51;101530.56;5072095;28;20100;-83
2022/06/01 10:30:28;;;;;;;7.43;5.10;;;;;;;14.64;71.66;101528.16;5072657;28;20025;-85
2022/06/01 10:33:08;;;;;;;8.30;5.05;;;;;;;14.82;72.77;101540.81;5054378;28;20464;-89
2022/06/01 10:35:45;;;;;;;8.45;6.25;;;;;;;14.57;73.11;101500.13;5072437;28;20032;-85
2022/06/01 10:38:15;;;;;;;8.40;6.45;;;;;;;14.82;73.39;101556.44;5072378;28;20037;-87
2022/06/01 10:41:05;;;;;;;9.13;6.50;;;;;;;14.88;72.02;101545.63;5072173;28;20040;-85
2022/06/01 10:43:45;;;;;;;10.48;8.13;;;;;;;14.89;73.03;101529.91;5072133;28;20617;-86
2022/06/01 10:46:16;;;;;;;11.55;9.00;;;;;;;15.20;73.03;101538.16;5074642;28;20029;-83
2022/06/01 10:48:52;;;;;;;11.18;8.88;;;;;;;15.59;71.63;101539.66;5075116;28;20039;-85
2022/06/01 10:51:28;;;;;;;11.68;8.95;;;;;;;15.98;69.88;101524.69;5075743;28;20027;-84
2022/06/01 10:54:21;;;;;;;12.60;8.95;;;;;;;16.24;67.52;101496.66;5076164;28;20526;-85
2022/06/01 10:56:48;;;;;;;10.25;7.85;;;;;;;16.21;67.48;101476.03;5076010;28;20024;-84
2022/06/01 10:59:16;;;;;;;10.38;7.35;;;;;;;16.64;65.34;101521.34;5076227;28;20089;-86
2022/06/01 11:02:00;;;;;;;10.45;7.47;;;;;;;16.79;66.73;101508.88;5075769;28;20021;-84
2022/06/01 11:05:00;;;;;;;9.52;7.05;;;;;;;16.86;66.38;101507.47;5075761;28;20032;-78
2022/06/01 11:07:49;;;;;;;9.35;6.85;;;;;;;17.04;64.18;101514.81;5075441;28;20180;-86
2022/06/01 11:10:20;;;;;;;10.45;6.88;;;;;;;17.17;64.78;101520.69;5075889;28;20036;-82
2022/06/01 11:13:23;;;;;;;9.35;7.70;;;;;;;17.29;64.71;101524.94;5075682;28;20025;-84
2022/06/01 11:16:01;;;;;;;10.20;8.18;;;;;;;17.51;64.47;101523.22;5058094;28;20127;-85
2022/06/01 11:18:48;;;;;;;10.70;7.70;;;;;;;17.69;64.78;101529.53;5075774;28;20031;-85
2022/06/01 11:22:00;;;;;;;12.10;8.68;;;;;;;17.96;62.00;101522.06;5057555;28;20434;-86
2022/06/01 11:24:42;;;;;;;12.15;8.57;;;;;;;17.84;61.51;101483.91;4994054;28;20026;-85
2022/06/01 11:27:16;;;;;;;10.75;8.27;;;;;;;18.30;61.33;101527.09;4993878;28;20461;-83
2022/06/01 11:29:47;;;;;;;12.20;8.73;;;;;;;18.36;63.42;101516.13;4993850;28;20518;-84
2022/06/01 11:32:29;;;;;;;11.88;8.52;;;;;;;18.66;62.74;101520.53;4993966;28;20039;-85
2022/06/01 11:35:15;;;;;;;12.85;8.40;;;;;;;19.06;62.60;101520.50;4994054;28;20382;-84
2022/06/01 11:37:50;;;;;;;12.38;8.13;;;;;;;19.12;58.86;101522.59;4977499;28;20045;-84
2022/06/01 11:40:40;;;;;;;10.43;7.32;;;;;;;18.75;56.69;101453.50;4993747;28;20030;-85
2022/06/01 11:43:39;;;;;;;10.13;7.18;;;;;;;19.08;58.63;101512.56;4993817;28;20034;-91
2022/06/01 11:46:48;;;;;;;11.02;7.57;;;;;;;18.71;56.67;101518.38;4993956;28;20431;-90
2022/06/01 11:49:56;;;;;;;11.90;7.18;;;;;;;17.36;59.70;101329.47;4993727;28;20045;-86
2022/06/01 11:52:50;;;;;;;10.80;7.53;;;;;;;18.56;63.04;101515.25;4916534;29;20052;-85
2022/06/01 11:55:24;;;;;;;8.32;6.35;;;;;;;17.56;60.15;101333.03;4917142;28;20457;-87
2022/06/01 11:58:10;;;;;;;7.80;5.80;;;;;;;18.50;56.54;101507.94;4935508;28;20050;-87
2022/06/01 12:01:27;;;;;;;7.28;5.00;;;;;;;17.96;58.16;101331.31;4974187;28;20027;-86